createdAt,value
2022-10-25T00:02:19.094Z,1104.90
2022-10-25T00:04:46.983Z,1100.47
2022-10-25T00:07:14.473Z,1102.97
2022-10-25T00:09:42.273Z,1106.70
2022-10-25T00:12:09.609Z,1104.43
2022-10-25T00:14:36.788Z,1102.43
2022-10-25T00:17:03.986Z,1102.00
2022-10-25T00:19:31.186Z,1102.18
2022-10-25T00:21:58.305Z,1103.38
2022-10-25T00:24:25.485Z,1104.50
2022-10-25T00:26:52.617Z,1099.25
2022-10-25T00:29:19.908Z,1101.30
2022-10-25T00:31:47.948Z,1103.30
2022-10-25T00:34:15.094Z,1104.10
2022-10-25T00:36:42.203Z,1105.68
2022-10-25T00:39:09.379Z,1103.70
2022-10-25T00:41:36.524Z,1100.07
2022-10-25T00:44:40.521Z,1090.90
2022-10-25T00:47:14.017Z,1102.28
2022-10-25T00:49:41.879Z,1101.90
2022-10-25T00:52:09.702Z,1104.20
2022-10-25T00:54:38.893Z,1101.32
2022-10-25T00:57:12.439Z,1105.43
2022-10-25T00:59:40.137Z,1098.45
2022-10-25T01:02:07.445Z,1102.78
2022-10-25T01:04:35.029Z,1101.43
2022-10-25T01:07:02.290Z,1100.88
2022-10-25T01:09:31.479Z,1104.10
2022-10-25T01:11:58.638Z,1102.00
2022-10-25T01:14:26.822Z,1104.82
2022-10-25T01:16:59.933Z,1106.30
2022-10-25T01:20:10.727Z,1103.43
2022-10-25T01:23:04.304Z,1105.97
2022-10-25T01:26:12.695Z,1105.77
2022-10-25T01:28:58.475Z,1104.10
2022-10-25T01:31:38.962Z,1109.18
2022-10-25T01:34:09.006Z,1108.07
2022-10-25T01:36:43.015Z,1103.90
2022-10-25T01:39:14.830Z,1106.28
2022-10-25T01:41:58.501Z,1113.28
2022-10-25T01:44:39.318Z,1107.32
2022-10-25T01:47:06.474Z,1107.78
2022-10-25T01:49:38.110Z,1107.47
2022-10-25T01:52:05.302Z,1108.43
2022-10-25T01:54:32.478Z,1105.72
2022-10-25T01:57:02.711Z,1103.15
2022-10-25T01:59:41.767Z,1105.78
2022-10-25T02:02:24.252Z,1109.97
2022-10-25T02:04:56.907Z,1104.40
2022-10-25T02:07:38.099Z,1104.65
2022-10-25T02:12:36.233Z,1115.35
2022-10-25T02:15:11.236Z,1111.90
2022-10-25T02:17:41.855Z,1108.97
2022-10-25T02:20:09.498Z,1106.18
2022-10-25T02:22:38.146Z,1109.03
2022-10-25T02:25:07.081Z,1107.80
2022-10-25T02:27:35.222Z,1105.65
2022-10-25T02:30:02.414Z,1100.45
2022-10-25T02:32:29.620Z,1106.90
2022-10-25T02:34:56.750Z,1109.75
2022-10-25T02:37:23.899Z,1104.00
2022-10-25T02:39:51.491Z,1111.05
2022-10-25T02:42:18.598Z,1110.50
2022-10-25T02:44:45.801Z,1109.93
2022-10-25T02:47:12.899Z,1110.23
2022-10-25T02:49:40.406Z,1107.93
2022-10-25T02:52:07.503Z,1105.38
2022-10-25T02:54:34.660Z,1101.82
2022-10-25T02:57:01.803Z,1112.40
2022-10-25T02:59:29.680Z,1113.23
2022-10-25T03:01:56.989Z,1108.20
2022-10-25T03:04:24.275Z,1103.53
2022-10-25T03:06:51.421Z,1103.30
2022-10-25T03:09:18.586Z,1104.85
2022-10-25T03:11:45.641Z,1107.70
2022-10-25T03:14:12.774Z,1098.55
2022-10-25T03:16:40.062Z,1103.47
2022-10-25T03:19:07.360Z,1104.43
2022-10-25T03:21:37.555Z,1099.30
2022-10-25T03:24:07.546Z,1108.00
2022-10-25T03:26:34.696Z,1101.10
2022-10-25T03:29:01.985Z,1102.38
2022-10-25T03:31:29.095Z,1097.15
2022-10-25T03:33:56.331Z,1097.05
2022-10-25T03:36:23.467Z,1111.13
2022-10-25T03:38:50.653Z,1101.57
2022-10-25T03:41:17.769Z,1098.45
2022-10-25T03:43:44.975Z,1101.57
2022-10-25T03:46:12.255Z,1107.45
2022-10-25T03:48:39.384Z,1109.68
2022-10-25T03:51:06.627Z,1097.40
2022-10-25T03:53:33.770Z,1101.15
2022-10-25T03:56:00.938Z,1099.47
2022-10-25T03:58:28.046Z,1094.47
2022-10-25T04:00:55.177Z,1096.32
2022-10-25T04:03:22.386Z,1097.75
2022-10-25T04:05:49.443Z,1102.25
2022-10-25T04:08:16.738Z,1097.55
2022-10-25T04:10:44.424Z,1093.10
2022-10-25T04:13:11.691Z,1101.70
2022-10-25T04:15:39.124Z,1098.53
2022-10-25T04:18:06.638Z,1097.78
2022-10-25T04:20:33.804Z,1101.10
2022-10-25T04:23:01.031Z,1099.88
2022-10-25T04:25:28.839Z,1098.97
2022-10-25T04:27:56.117Z,1102.13
2022-10-25T04:30:23.316Z,1093.43
2022-10-25T04:32:50.728Z,1099.03
2022-10-25T04:35:18.309Z,1099.53
2022-10-25T04:37:45.665Z,1095.23
2022-10-25T04:40:13.251Z,1092.07
2022-10-25T04:42:40.483Z,1099.13
2022-10-25T04:45:07.899Z,1098.43
2022-10-25T04:47:35.055Z,1096.15
2022-10-25T04:50:02.347Z,1105.20
2022-10-25T04:52:30.253Z,1102.25
2022-10-25T04:54:57.754Z,1099.60
2022-10-25T04:57:25.631Z,1097.67
2022-10-25T04:59:52.816Z,1099.68
2022-10-25T05:02:20.167Z,1107.40
2022-10-25T05:04:47.296Z,1100.45
2022-10-25T05:07:14.483Z,1098.72
2022-10-25T05:09:45.154Z,1100.28
2022-10-25T05:12:14.829Z,1103.38
2022-10-25T05:14:41.974Z,1094.82
2022-10-25T05:17:09.097Z,1098.18
2022-10-25T05:19:36.258Z,1101.72
2022-10-25T05:22:03.404Z,1096.15
2022-10-25T05:24:30.603Z,1091.50
2022-10-25T05:26:57.682Z,1092.65
2022-10-25T05:29:24.879Z,1093.45
2022-10-25T05:31:52.015Z,1095.70
2022-10-25T05:34:19.238Z,1096.18
2022-10-25T05:36:46.381Z,1093.65
2022-10-25T05:39:13.545Z,1092.63
2022-10-25T05:41:40.688Z,1095.72
2022-10-25T05:44:07.910Z,1097.80
2022-10-25T05:46:35.140Z,1093.75
2022-10-25T05:49:02.594Z,1094.38
2022-10-25T05:51:35.843Z,1094.13
2022-10-25T05:54:05.155Z,1091.70
2022-10-25T05:56:33.501Z,1095.75
2022-10-25T05:59:07.508Z,1089.57
2022-10-25T06:01:35.389Z,1092.75
2022-10-25T06:04:02.707Z,1093.15
2022-10-25T06:06:29.925Z,1087.85
2022-10-25T06:08:58.231Z,1088.43
2022-10-25T06:11:25.743Z,1090.60
2022-10-25T06:13:53.160Z,1091.93
2022-10-25T06:16:20.742Z,1089.50
2022-10-25T06:18:47.907Z,1092.70
2022-10-25T06:21:19.182Z,1085.95
2022-10-25T06:23:46.902Z,1091.10
2022-10-25T06:26:15.319Z,1091.78
2022-10-25T06:28:42.446Z,1093.07
2022-10-25T06:31:17.272Z,1099.38
2022-10-25T06:33:44.481Z,1087.68
2022-10-25T06:36:19.119Z,1094.70
2022-10-25T06:38:46.956Z,1089.55
2022-10-25T06:41:15.334Z,1094.85
2022-10-25T06:43:42.490Z,1090.50
2022-10-25T06:46:10.686Z,1086.53
2022-10-25T06:48:38.122Z,1091.03
2022-10-25T06:51:06.243Z,1096.30
2022-10-25T06:53:33.646Z,1086.88
2022-10-25T06:56:05.545Z,1087.53
2022-10-25T06:58:34.487Z,1087.93
2022-10-25T07:01:02.886Z,1090.75
2022-10-25T07:03:35.010Z,1091.80
2022-10-25T07:06:05.053Z,1086.85
2022-10-25T07:08:32.547Z,1091.55
2022-10-25T07:10:59.610Z,1096.50
2022-10-25T07:13:26.819Z,1083.95
2022-10-25T07:15:54.082Z,1088.43
2022-10-25T07:18:21.274Z,1091.30
2022-10-25T07:20:50.435Z,1092.00
2022-10-25T07:23:17.630Z,1094.00
2022-10-25T07:25:44.809Z,1090.35
2022-10-25T07:28:12.195Z,1098.57
2022-10-25T07:30:44.212Z,1093.18
2022-10-25T07:33:11.323Z,1091.63
2022-10-25T07:35:46.846Z,1093.97
2022-10-25T07:38:27.735Z,1091.90
2022-10-25T07:41:01.251Z,1086.72
2022-10-25T07:43:28.818Z,1089.82
2022-10-25T07:45:56.298Z,1092.68
2022-10-25T07:48:23.490Z,1103.28
2022-10-25T07:50:50.797Z,1112.50
2022-10-25T07:53:17.922Z,1120.03
2022-10-25T07:55:54.704Z,1116.57
2022-10-25T07:58:21.749Z,1126.20
2022-10-25T08:00:48.920Z,1124.20
2022-10-25T08:03:17.228Z,1125.07
2022-10-25T08:05:48.157Z,1125.47
2022-10-25T08:08:15.350Z,1121.57
2022-10-25T08:10:43.607Z,1125.35
2022-10-25T08:13:11.056Z,1117.78
2022-10-25T08:15:40.666Z,1123.20
2022-10-25T08:18:07.909Z,1127.05
2022-10-25T08:21:00.558Z,1127.43
2022-10-25T08:23:21.652Z,1130.57
2022-10-25T08:25:48.348Z,1127.00
2022-10-25T08:28:15.192Z,1125.03
2022-10-25T08:30:41.949Z,1124.43
2022-10-25T08:33:11.650Z,1120.97
2022-10-25T08:35:39.139Z,1123.18
2022-10-25T08:38:06.118Z,1122.53
2022-10-25T08:40:40.946Z,1127.55
2022-10-25T08:43:13.269Z,1127.80
2022-10-25T08:45:51.479Z,1131.82
2022-10-25T08:48:22.089Z,1136.90
2022-10-25T08:50:52.538Z,1133.10
2022-10-25T08:53:42.424Z,1136.75
2022-10-25T08:56:17.295Z,1134.90
2022-10-25T08:58:50.793Z,1133.87
2022-10-25T09:01:24.051Z,1130.13
2022-10-25T09:03:50.955Z,1130.80
2022-10-25T09:06:41.179Z,1134.80
2022-10-25T09:09:17.577Z,1130.60
2022-10-25T09:11:44.219Z,1139.32
2022-10-25T09:14:50.711Z,1135.20
2022-10-25T09:17:22.726Z,1128.57
2022-10-25T09:20:15.753Z,1134.60
2022-10-25T09:23:00.521Z,1133.10
2022-10-25T09:25:55.436Z,1131.47
2022-10-25T09:29:01.418Z,1129.90
2022-10-25T09:31:31.068Z,1130.90
2022-10-25T09:34:04.222Z,1128.38
2022-10-25T09:36:50.064Z,1128.43
2022-10-25T09:39:40.348Z,1127.80
2022-10-25T09:42:17.418Z,1126.63
2022-10-25T09:44:54.265Z,1130.15
2022-10-25T09:47:30.311Z,1124.68
2022-10-25T09:50:06.753Z,1125.57
2022-10-25T09:55:45.121Z,1135.70
2022-10-25T09:58:28.076Z,1128.95
2022-10-25T10:00:57.174Z,1122.40
2022-10-25T10:03:29.140Z,1127.53
2022-10-25T10:06:00.219Z,1131.40
2022-10-25T10:08:28.373Z,1139.13
2022-10-25T10:10:56.295Z,1140.75
2022-10-25T10:13:34.152Z,1125.85
2022-10-25T10:16:14.174Z,1125.68
2022-10-25T10:18:41.188Z,1123.55
2022-10-25T10:21:10.983Z,1123.93
2022-10-25T10:23:43.784Z,1123.22
2022-10-25T10:26:21.461Z,1136.20
2022-10-25T10:28:50.826Z,1130.50
2022-10-25T10:31:19.250Z,1131.60
2022-10-25T10:33:52.338Z,1132.57
2022-10-25T10:36:23.798Z,1129.13
2022-10-25T10:38:50.926Z,1133.60
2022-10-25T10:41:28.428Z,1129.40
2022-10-25T10:44:13.782Z,1131.57
2022-10-25T10:46:46.071Z,1132.90
2022-10-25T10:49:14.397Z,1128.40
2022-10-25T10:51:45.123Z,1129.07
2022-10-25T10:54:22.698Z,1126.85
2022-10-25T10:57:06.738Z,1127.50
2022-10-25T10:59:44.423Z,1127.38
2022-10-25T11:02:20.290Z,1132.47
2022-10-25T11:04:55.339Z,1129.15
2022-10-25T11:07:30.595Z,1125.40
2022-10-25T11:10:28.523Z,1129.55
2022-10-25T11:13:05.658Z,1148.70
2022-10-25T11:15:46.539Z,1148.30
2022-10-25T11:18:14.810Z,1137.03
2022-10-25T11:21:06.895Z,1136.53
2022-10-25T11:23:42.806Z,1149.70
2022-10-25T11:26:46.983Z,1137.90
2022-10-25T11:29:31.785Z,1144.43
2022-10-25T11:32:16.623Z,1137.50
2022-10-25T11:35:07.193Z,1147.25
2022-10-25T11:37:42.414Z,1137.22
2022-10-25T11:40:18.489Z,1142.40
2022-10-25T11:43:03.826Z,1137.80
2022-10-25T11:45:48.426Z,1143.80
2022-10-25T11:49:06.419Z,1144.22
2022-10-25T11:51:42.343Z,1140.70
2022-10-25T11:54:36.222Z,1139.13
2022-10-25T11:57:30.620Z,1136.78
2022-10-25T12:00:15.357Z,1149.63
2022-10-25T12:02:51.975Z,1139.80
2022-10-25T12:05:25.723Z,1141.63
2022-10-25T12:08:14.106Z,1142.17
2022-10-25T12:10:54.532Z,1142.63
2022-10-25T12:13:27.491Z,1139.70
2022-10-25T12:15:56.368Z,1140.15
2022-10-25T12:18:31.772Z,1140.75
2022-10-25T12:20:59.075Z,1140.63
2022-10-25T12:23:28.341Z,1139.63
2022-10-25T12:26:00.297Z,1140.50
2022-10-25T12:28:32.908Z,1138.22
2022-10-25T12:31:11.367Z,1141.20
2022-10-25T12:33:40.828Z,1134.35
2022-10-25T12:36:16.575Z,1139.03
2022-10-25T12:38:43.358Z,1135.60
2022-10-25T12:41:19.598Z,1138.47
2022-10-25T12:44:07.639Z,1144.23
2022-10-25T12:46:35.703Z,1138.50
2022-10-25T12:49:41.808Z,1140.65
2022-10-25T12:52:30.644Z,1141.43
2022-10-25T12:55:08.787Z,1141.68
2022-10-25T12:57:48.275Z,1134.65
2022-10-25T13:03:00.719Z,1130.30
2022-10-25T13:05:28.094Z,1126.30
2022-10-25T13:07:58.813Z,1126.17
2022-10-25T13:13:06.486Z,1130.95
2022-10-25T13:15:55.211Z,1129.45
2022-10-25T13:18:34.022Z,1128.43
2022-10-25T13:21:03.160Z,1141.10
2022-10-25T13:23:51.448Z,1128.65
2022-10-25T13:26:21.074Z,1131.40
2022-10-25T13:28:53.147Z,1127.65
2022-10-25T13:31:34.879Z,1132.00
2022-10-25T13:34:13.602Z,1137.77
2022-10-25T13:36:51.548Z,1130.72
2022-10-25T13:39:30.815Z,1134.40
2022-10-25T13:42:09.845Z,1135.53
2022-10-25T13:44:55.900Z,1133.60
2022-10-25T13:48:04.460Z,1133.28
2022-10-25T13:50:41.280Z,1129.82
2022-10-25T13:53:32.436Z,1129.97
2022-10-25T13:56:12.492Z,1135.68
2022-10-25T13:58:44.631Z,1131.40
2022-10-25T14:01:17.748Z,1138.93
2022-10-25T14:04:03.524Z,1135.40
2022-10-25T14:06:35.323Z,1137.63
2022-10-25T14:09:08.594Z,1132.10
2022-10-25T14:11:51.632Z,1131.78
2022-10-25T14:14:34.097Z,1131.55
2022-10-25T14:17:22.443Z,1132.72
2022-10-25T14:19:56.249Z,1128.47
2022-10-25T14:22:52.171Z,1129.10
2022-10-25T14:25:36.878Z,1129.97
2022-10-25T14:28:23.947Z,1138.43
2022-10-25T14:30:54.188Z,1135.93
2022-10-25T14:33:37.904Z,1137.22
2022-10-25T14:36:27.247Z,1140.75
2022-10-25T14:38:56.408Z,1136.82
2022-10-25T14:41:35.251Z,1139.55
2022-10-25T14:44:02.904Z,1139.72
2022-10-25T14:46:30.535Z,1137.10
2022-10-25T14:48:59.072Z,1143.22
2022-10-25T14:51:31.103Z,1140.13
2022-10-25T14:54:05.182Z,1141.65
2022-10-25T14:56:33.288Z,1136.22
2022-10-25T14:59:01.549Z,1139.60
2022-10-25T15:01:28.736Z,1142.07
2022-10-25T15:03:59.294Z,1142.75
2022-10-25T15:06:29.635Z,1141.10
2022-10-25T15:09:16.191Z,1138.85
2022-10-25T15:12:06.959Z,1142.32
2022-10-25T15:14:34.091Z,1139.63
2022-10-25T15:17:02.807Z,1145.13
2022-10-25T15:19:29.514Z,1141.72
2022-10-25T15:22:08.101Z,1140.57
2022-10-25T15:24:44.719Z,1140.88
2022-10-25T15:27:26.386Z,1141.03
2022-10-25T15:29:54.250Z,1139.43
2022-10-25T15:32:23.446Z,1140.38
2022-10-25T15:34:53.109Z,1139.80
2022-10-25T15:37:21.583Z,1140.13
2022-10-25T15:39:50.544Z,1146.00
2022-10-25T15:42:18.111Z,1143.20
2022-10-25T15:44:45.439Z,1141.63
2022-10-25T15:47:30.685Z,1135.63
2022-10-25T15:49:58.476Z,1134.93
2022-10-25T15:52:25.649Z,1135.82
2022-10-25T15:54:52.517Z,1139.28
2022-10-25T15:57:19.318Z,1140.82
2022-10-25T15:59:46.085Z,1142.75
2022-10-25T16:02:23.008Z,1142.00
2022-10-25T16:04:49.754Z,1136.38
2022-10-25T16:07:16.601Z,1144.13
2022-10-25T16:09:43.574Z,1143.30
2022-10-25T16:12:18.131Z,1134.60
2022-10-25T16:14:45.446Z,1138.37
2022-10-25T16:17:13.785Z,1137.60
2022-10-25T16:19:41.117Z,1138.63
2022-10-25T16:22:07.796Z,1133.53
2022-10-25T16:24:34.517Z,1140.18
2022-10-25T16:27:01.395Z,1138.63
2022-10-25T16:29:28.186Z,1134.75
2022-10-25T16:31:55.051Z,1137.95
2022-10-25T16:34:22.618Z,1141.97
2022-10-25T16:36:50.483Z,1142.88
2022-10-25T16:39:17.397Z,1144.55
2022-10-25T16:41:45.946Z,1151.65
2022-10-25T16:44:15.463Z,1146.13
2022-10-25T16:46:42.311Z,1145.70
2022-10-25T16:49:09.413Z,1146.13
2022-10-25T16:51:37.459Z,1144.40
2022-10-25T16:54:04.480Z,1150.43
2022-10-25T16:56:31.565Z,1151.30
2022-10-25T16:58:58.307Z,1150.30
2022-10-25T17:01:34.227Z,1149.37
2022-10-25T17:04:02.806Z,1151.03
2022-10-25T17:06:40.770Z,1151.00
2022-10-25T17:09:08.704Z,1152.03
2022-10-25T17:11:36.225Z,1147.82
2022-10-25T17:14:03.094Z,1148.20
2022-10-25T17:16:29.932Z,1141.17
2022-10-25T17:18:57.212Z,1142.13
2022-10-25T17:21:24.136Z,1136.05
2022-10-25T17:23:50.846Z,1132.90
2022-10-25T17:26:17.637Z,1139.05
2022-10-25T17:28:44.637Z,1144.68
2022-10-25T17:31:13.498Z,1135.57
2022-10-25T17:33:42.359Z,1136.97
2022-10-25T17:36:12.638Z,1135.97
2022-10-25T17:38:39.914Z,1141.15
2022-10-25T17:41:06.909Z,1136.10
2022-10-25T17:43:41.308Z,1141.50
2022-10-25T17:46:13.685Z,1139.23
2022-10-25T17:48:40.420Z,1143.57
2022-10-25T17:51:10.511Z,1129.97
2022-10-25T17:53:37.636Z,1128.65
2022-10-25T17:56:16.389Z,1131.60
2022-10-25T17:58:44.931Z,1131.07
2022-10-25T18:01:14.458Z,1135.40
2022-10-25T18:03:41.295Z,1132.10
2022-10-25T18:06:12.946Z,1134.03
2022-10-25T18:08:39.826Z,1139.85
2022-10-25T18:11:15.375Z,1143.80
2022-10-25T18:13:42.406Z,1138.13
2022-10-25T18:16:10.457Z,1138.57
2022-10-25T18:18:37.982Z,1129.82
2022-10-25T18:21:06.754Z,1137.65
2022-10-25T18:23:33.635Z,1125.78
2022-10-25T18:26:00.599Z,1124.37
2022-10-25T18:28:28.219Z,1123.45
2022-10-25T18:31:09.597Z,1134.47
2022-10-25T18:33:38.249Z,1135.93
2022-10-25T18:36:27.349Z,1125.95
2022-10-25T18:38:54.628Z,1122.47
2022-10-25T18:41:26.651Z,1121.38
2022-10-25T18:43:54.825Z,1121.57
2022-10-25T18:46:22.201Z,1125.57
2022-10-25T18:48:52.746Z,1122.57
2022-10-25T18:51:21.579Z,1122.85
2022-10-25T18:53:48.726Z,1121.10
2022-10-25T18:56:19.612Z,1120.47
2022-10-25T18:58:49.171Z,1121.87
2022-10-25T19:01:20.382Z,1120.77
2022-10-25T19:03:47.313Z,1124.22
2022-10-25T19:06:14.464Z,1117.68
2022-10-25T19:08:41.426Z,1132.20
2022-10-25T19:11:10.473Z,1128.10
2022-10-25T19:13:37.538Z,1128.17
2022-10-25T19:16:05.131Z,1129.07
2022-10-25T19:18:33.310Z,1124.72
2022-10-25T19:21:02.011Z,1127.85
2022-10-25T19:23:29.529Z,1129.00
2022-10-25T19:25:56.810Z,1131.75
2022-10-25T19:28:23.483Z,1131.50
2022-10-25T19:30:50.179Z,1130.20
2022-10-25T19:33:16.855Z,1129.90
2022-10-25T19:35:43.641Z,1144.00
2022-10-25T19:38:10.330Z,1142.22
2022-10-25T19:40:37.091Z,1141.43
2022-10-25T19:43:03.818Z,1132.85
2022-10-25T19:45:30.579Z,1138.28
2022-10-25T19:47:58.908Z,1140.47
2022-10-25T19:50:25.759Z,1141.50
2022-10-25T19:52:52.571Z,1138.80
2022-10-25T19:55:19.317Z,1135.18
2022-10-25T19:57:46.360Z,1136.77
2022-10-25T20:00:13.852Z,1134.40
2022-10-25T20:02:40.658Z,1140.27
2022-10-25T20:05:07.748Z,1138.97
2022-10-25T20:07:34.607Z,1137.72
2022-10-25T20:10:01.368Z,1141.07
2022-10-25T20:12:30.385Z,1139.70
2022-10-25T20:14:57.866Z,1140.75
2022-10-25T20:17:24.739Z,1139.70
2022-10-25T20:19:51.626Z,1152.20
2022-10-25T20:22:18.406Z,1149.35
2022-10-25T20:24:45.043Z,1154.00
2022-10-25T20:27:11.796Z,1150.88
2022-10-25T20:29:39.923Z,1148.55
2022-10-25T20:32:06.630Z,1154.97
2022-10-25T20:34:35.066Z,1150.13
2022-10-25T20:37:03.698Z,1154.85
2022-10-25T20:39:30.632Z,1149.68
2022-10-25T20:41:57.443Z,1155.40
2022-10-25T20:44:24.622Z,1154.65
2022-10-25T20:46:51.461Z,1154.70
2022-10-25T20:49:18.175Z,1152.78
2022-10-25T20:51:44.843Z,1154.18
2022-10-25T20:54:11.552Z,1153.40
2022-10-25T20:56:39.224Z,1153.57
2022-10-25T20:59:06.283Z,1153.72
2022-10-25T21:01:33.098Z,1153.30
2022-10-25T21:03:59.946Z,1153.35
2022-10-25T21:06:26.706Z,1148.38
2022-10-25T21:08:53.896Z,1150.37
2022-10-25T21:11:20.658Z,1151.27
2022-10-25T21:13:47.299Z,1154.47
2022-10-25T21:16:15.441Z,1150.03
2022-10-25T21:18:43.430Z,1150.40
2022-10-25T21:21:19.730Z,1150.03
2022-10-25T21:23:47.200Z,1148.28
2022-10-25T21:26:14.026Z,1147.90
2022-10-25T21:28:41.650Z,1147.90
2022-10-25T21:31:13.657Z,1151.07
2022-10-25T21:33:49.646Z,1149.70
2022-10-25T21:36:18.741Z,1151.55
2022-10-25T21:38:45.642Z,1148.47
2022-10-25T21:41:19.677Z,1147.32
2022-10-25T21:43:50.904Z,1148.63
2022-10-25T21:46:19.422Z,1151.43
2022-10-25T21:48:52.660Z,1146.00
2022-10-25T21:51:26.723Z,1147.38
2022-10-25T21:53:54.931Z,1145.68
2022-10-25T21:56:23.222Z,1145.93
2022-10-25T21:58:50.851Z,1147.13
2022-10-25T22:01:20.617Z,1148.60
2022-10-25T22:03:47.729Z,1152.03
2022-10-25T22:06:17.258Z,1145.88
2022-10-25T22:08:44.369Z,1145.75
2022-10-25T22:11:14.593Z,1144.93
2022-10-25T22:13:41.600Z,1142.82
2022-10-25T22:16:17.246Z,1140.45
2022-10-25T22:18:53.506Z,1141.43
2022-10-25T22:21:21.194Z,1142.93
2022-10-25T22:23:48.317Z,1148.45
2022-10-25T22:26:17.938Z,1143.57
2022-10-25T22:28:45.223Z,1143.05
2022-10-25T22:31:14.343Z,1143.68
2022-10-25T22:33:42.347Z,1145.80
2022-10-25T22:36:19.686Z,1144.30
2022-10-25T22:38:47.213Z,1145.80
2022-10-25T22:41:16.353Z,1148.05
2022-10-25T22:43:43.795Z,1147.70
2022-10-25T22:46:24.677Z,1145.97
2022-10-25T22:48:53.646Z,1146.90
2022-10-25T22:51:21.690Z,1146.63
2022-10-25T22:53:48.782Z,1145.80
2022-10-25T22:56:18.286Z,1149.50
2022-10-25T22:58:50.651Z,1150.07
2022-10-25T23:01:22.900Z,1144.25
2022-10-25T23:03:54.266Z,1145.95
2022-10-25T23:06:26.654Z,1144.32
2022-10-25T23:08:58.019Z,1148.40
2022-10-25T23:11:27.146Z,1150.97
2022-10-25T23:13:54.234Z,1144.20
2022-10-25T23:16:21.165Z,1146.82
2022-10-25T23:18:47.867Z,1147.50
2022-10-25T23:21:19.806Z,1149.85
2022-10-25T23:23:46.950Z,1149.13
2022-10-25T23:26:19.034Z,1147.18
2022-10-25T23:28:45.815Z,1149.53
2022-10-25T23:31:13.298Z,1145.50
2022-10-25T23:33:41.698Z,1147.05
2022-10-25T23:36:16.963Z,1143.38
2022-10-25T23:38:44.036Z,1146.07
2022-10-25T23:41:10.767Z,1152.50
2022-10-25T23:43:37.572Z,1151.03
2022-10-25T23:46:05.549Z,1145.93
2022-10-25T23:48:32.695Z,1154.75
2022-10-25T23:51:02.348Z,1152.72
2022-10-25T23:53:29.820Z,1152.70
2022-10-25T23:55:56.771Z,1148.28
2022-10-25T23:58:23.981Z,1144.65
